Time;durP1;ratioP1;P1;durP2;ratioP2;P2;SDS_P1;SDS_P2;PMS_P1;PMS_P2;Temp;Humidity;BMP_temperature;BMP_pressure;BME280_temperature;BME280_humidity;BME280_pressure;Samples;Min_cycle;Max_cycle;Signal;HPM_P1;HPM_P2
2021/08/18 00:01:59;;;;;;;1.77;0.90;;;16.80;71.30;;;;;;5123937;27;20039;-88
2021/08/18 00:04:24;;;;;;;0.85;0.57;;;16.70;71.50;;;;;;5111679;28;20019;-87
2021/08/18 00:06:50;;;;;;;1.27;0.77;;;16.70;71.40;;;;;;5094562;28;20036;-87
2021/08/18 00:09:16;;;;;;;1.38;0.70;;;16.70;71.60;;;;;;5095629;28;20030;-88
2021/08/18 00:11:41;;;;;;;1.20;0.63;;;16.70;71.80;;;;;;5097921;28;20449;-88
2021/08/18 00:14:08;;;;;;;1.55;0.70;;;16.70;72.20;;;;;;5097702;28;20020;-88
2021/08/18 00:16:34;;;;;;;2.45;0.80;;;16.80;71.90;;;;;;5098002;28;20034;-87
2021/08/18 00:18:59;;;;;;;1.80;0.80;;;16.80;71.90;;;;;;5097405;28;20078;-87
2021/08/18 00:21:25;;;;;;;1.23;0.60;;;16.70;71.90;;;;;;5097457;28;20086;-88
2021/08/18 00:23:52;;;;;;;1.63;0.70;;;16.70;71.90;;;;;;5097592;28;20020;-87
2021/08/18 00:26:18;;;;;;;1.45;0.60;;;16.70;72.00;;;;;;5097261;28;20059;-87
2021/08/18 00:28:44;;;;;;;1.35;0.60;;;16.70;71.90;;;;;;5091082;28;20051;-87
2021/08/18 00:31:14;;;;;;;1.80;0.75;;;16.70;72.00;;;;;;5097665;28;20023;-88
2021/08/18 00:33:40;;;;;;;1.83;0.80;;;16.70;72.40;;;;;;5115720;28;20445;-88
2021/08/18 00:36:06;;;;;;;1.70;0.90;;;16.70;72.20;;;;;;5097494;28;20028;-88
2021/08/18 00:38:32;;;;;;;1.30;0.70;;;16.80;72.30;;;;;;5097357;28;20047;-88
2021/08/18 00:40:58;;;;;;;1.35;0.70;;;16.80;72.10;;;;;;5097479;28;20070;-88
2021/08/18 00:43:23;;;;;;;1.00;0.60;;;16.70;73.20;;;;;;5097516;28;20476;-87
2021/08/18 00:45:50;;;;;;;1.00;0.57;;;16.70;72.30;;;;;;5096941;28;20031;-88
2021/08/18 00:48:15;;;;;;;1.42;0.60;;;16.70;72.40;;;;;;5114247;28;20107;-87
2021/08/18 00:50:41;;;;;;;1.20;0.60;;;16.70;72.30;;;;;;5096023;28;20118;-88
2021/08/18 00:53:07;;;;;;;0.98;0.60;;;16.70;72.30;;;;;;5114113;28;20397;-88
2021/08/18 00:55:32;;;;;;;1.17;0.65;;;16.70;72.50;;;;;;5096548;28;20028;-88
2021/08/18 00:57:58;;;;;;;1.75;0.80;;;16.60;72.30;;;;;;5095920;28;20020;-88
2021/08/18 01:00:26;;;;;;;2.00;0.60;;;16.60;72.60;;;;;;5095786;28;20624;-87
2021/08/18 01:02:52;;;;;;;2.05;0.80;;;16.60;72.80;;;;;;5095664;28;20027;-88
2021/08/18 01:05:24;;;;;;;1.27;0.73;;;16.60;72.80;;;;;;5096287;28;20452;-87
2021/08/18 01:07:51;;;;;;;2.35;0.90;;;16.60;72.60;;;;;;5096327;28;20020;-87
2021/08/18 01:10:23;;;;;;;2.17;0.80;;;16.70;72.40;;;;;;5095457;28;20452;-88
2021/08/18 01:12:50;;;;;;;1.92;1.02;;;16.60;72.60;;;;;;5095222;28;20028;-88
2021/08/18 01:15:18;;;;;;;3.70;0.98;;;16.60;73.00;;;;;;5095572;28;20027;-87
2021/08/18 01:17:45;;;;;;;1.30;0.80;;;16.60;73.10;;;;;;5095713;28;20039;-86
2021/08/18 01:20:16;;;;;;;1.65;0.93;;;16.50;73.20;;;;;;5094928;28;20141;-88
2021/08/18 01:22:43;;;;;;;1.65;0.80;;;16.60;73.30;;;;;;5095461;28;20487;-87
2021/08/18 01:25:10;;;;;;;2.45;1.17;;;16.60;73.10;;;;;;5095190;28;20028;-88
2021/08/18 01:27:37;;;;;;;1.75;1.10;;;16.60;72.80;;;;;;5094971;28;20028;-88
2021/08/18 01:30:05;;;;;;;2.47;1.27;;;16.50;72.80;;;;;;5113707;28;20057;-88
2021/08/18 01:32:45;;;;;;;1.88;1.00;;;16.50;73.20;;;;;;5095773;28;20032;-88
2021/08/18 01:35:39;;;;;;;2.17;1.00;;;16.60;73.50;;;;;;5092565;28;20031;-87
2021/08/18 01:38:06;;;;;;;2.58;1.20;;;16.50;72.60;;;;;;5089950;28;20168;-88
2021/08/18 01:40:32;;;;;;;2.90;1.20;;;16.50;73.00;;;;;;5096681;27;20555;-87
2021/08/18 01:42:58;;;;;;;1.52;1.05;;;16.40;72.70;;;;;;5099185;28;20063;-88
2021/08/18 01:45:28;;;;;;;2.88;1.17;;;16.40;73.10;;;;;;5113371;28;20047;-89
2021/08/18 01:47:55;;;;;;;2.58;1.02;;;16.40;73.40;;;;;;5094885;28;20041;-88
2021/08/18 01:50:21;;;;;;;2.28;1.15;;;16.40;73.00;;;;;;5094576;28;20055;-87
2021/08/18 01:52:52;;;;;;;1.65;1.00;;;16.40;73.00;;;;;;5095508;28;20468;-88
2021/08/18 01:55:19;;;;;;;2.22;1.00;;;16.50;73.40;;;;;;5094877;28;20399;-87
2021/08/18 01:57:45;;;;;;;2.63;1.10;;;16.40;72.90;;;;;;5094573;28;20038;-88
2021/08/18 02:00:11;;;;;;;1.38;0.95;;;16.40;73.40;;;;;;5094794;28;20134;-88
2021/08/18 02:02:39;;;;;;;2.65;0.88;;;16.30;73.50;;;;;;5094742;28;20066;-88
2021/08/18 02:05:06;;;;;;;1.58;1.02;;;16.30;73.70;;;;;;5094696;28;20407;-87
2021/08/18 02:07:31;;;;;;;2.30;1.20;;;16.20;73.50;;;;;;5092602;28;20113;-87
2021/08/18 02:09:57;;;;;;;2.88;1.00;;;16.30;73.80;;;;;;5113126;28;20062;-87
2021/08/18 02:12:22;;;;;;;3.22;1.35;;;16.20;74.70;;;;;;5094360;28;20038;-87
2021/08/18 02:14:48;;;;;;;2.83;0.98;;;16.30;74.60;;;;;;5094383;28;20019;-87
2021/08/18 02:17:14;;;;;;;1.75;1.05;;;16.30;74.30;;;;;;5094680;28;20494;-87
2021/08/18 02:19:39;;;;;;;3.28;1.10;;;16.30;74.60;;;;;;5094931;28;20032;-87
2021/08/18 02:22:05;;;;;;;1.83;1.02;;;16.20;74.30;;;;;;5094198;28;20515;-87
2021/08/18 02:24:31;;;;;;;2.60;1.13;;;16.20;74.90;;;;;;5094295;28;20058;-87
2021/08/18 02:26:56;;;;;;;3.10;1.20;;;16.20;74.90;;;;;;5094254;28;20019;-87
2021/08/18 02:29:22;;;;;;;2.72;1.20;;;16.20;74.80;;;;;;5094685;28;20036;-87
2021/08/18 02:31:48;;;;;;;1.73;1.00;;;16.30;74.90;;;;;;5095000;28;20396;-88
2021/08/18 02:34:14;;;;;;;2.58;1.00;;;16.30;75.10;;;;;;5093646;28;20028;-87
2021/08/18 02:36:40;;;;;;;2.05;1.15;;;16.30;74.80;;;;;;5093844;28;20081;-87
2021/08/18 02:39:07;;;;;;;3.13;1.23;;;16.30;74.80;;;;;;5094415;28;20027;-88
2021/08/18 02:41:33;;;;;;;4.30;1.20;;;16.30;74.70;;;;;;5093952;28;20085;-87
2021/08/18 02:43:59;;;;;;;2.13;1.10;;;16.20;74.90;;;;;;5108804;28;20050;-87
2021/08/18 02:46:26;;;;;;;2.17;1.08;;;16.20;74.80;;;;;;5094153;28;20472;-87
2021/08/18 02:48:51;;;;;;;1.95;1.30;;;16.10;75.40;;;;;;5092017;28;20467;-87
2021/08/18 02:51:17;;;;;;;1.48;0.93;;;16.10;75.80;;;;;;5093812;28;20059;-88
2021/08/18 02:53:43;;;;;;;2.92;1.25;;;16.20;75.90;;;;;;5093868;28;20020;-86
2021/08/18 02:56:09;;;;;;;2.15;1.20;;;16.20;75.90;;;;;;5094468;28;20510;-87
2021/08/18 02:58:34;;;;;;;1.60;1.00;;;16.20;75.90;;;;;;5094679;28;20031;-87
2021/08/18 03:01:00;;;;;;;3.22;1.08;;;16.20;75.60;;;;;;5093879;28;20043;-87
2021/08/18 03:03:26;;;;;;;2.95;1.02;;;16.20;75.40;;;;;;5093281;28;20022;-87
2021/08/18 03:05:51;;;;;;;2.15;1.10;;;16.10;75.20;;;;;;5093779;28;20020;-87
2021/08/18 03:08:17;;;;;;;3.58;1.25;;;16.10;75.80;;;;;;5094267;28;20399;-88
2021/08/18 03:10:43;;;;;;;3.40;1.20;;;16.10;75.70;;;;;;5094394;28;20063;-86
2021/08/18 03:13:09;;;;;;;1.42;0.90;;;16.10;77.10;;;;;;5093480;28;20472;-87
2021/08/18 03:15:34;;;;;;;1.85;1.08;;;16.10;76.00;;;;;;5093608;28;20028;-88
2021/08/18 03:18:00;;;;;;;2.38;1.00;;;16.10;76.10;;;;;;5093443;28;20415;-87
2021/08/18 03:20:26;;;;;;;2.88;1.42;;;16.10;76.20;;;;;;5094217;28;20119;-88
2021/08/18 03:22:51;;;;;;;4.50;1.10;;;16.10;76.10;;;;;;5094338;28;20468;-87
2021/08/18 03:25:17;;;;;;;2.10;1.08;;;16.10;76.80;;;;;;5112134;28;20077;-87
2021/08/18 03:27:43;;;;;;;2.60;1.20;;;16.10;76.40;;;;;;5093293;28;20088;-87
2021/08/18 03:30:10;;;;;;;2.75;1.20;;;16.10;76.50;;;;;;5093826;28;20020;-87
2021/08/18 03:32:36;;;;;;;2.95;1.13;;;16.00;76.60;;;;;;5111901;28;20020;-87
2021/08/18 03:35:03;;;;;;;1.77;0.85;;;16.00;76.50;;;;;;5094200;28;20024;-88
2021/08/18 03:37:29;;;;;;;1.92;1.10;;;16.00;76.60;;;;;;5094115;28;20037;-87
2021/08/18 03:39:54;;;;;;;1.60;1.00;;;16.00;76.80;;;;;;5094055;28;20109;-87
2021/08/18 03:42:21;;;;;;;3.17;1.20;;;16.00;76.80;;;;;;5093512;28;20034;-87
2021/08/18 03:44:47;;;;;;;2.55;1.15;;;16.00;76.90;;;;;;5096015;28;20428;-88
2021/08/18 03:47:12;;;;;;;2.88;1.25;;;15.90;77.00;;;;;;5097361;28;20071;-87
2021/08/18 03:49:38;;;;;;;2.60;1.13;;;15.90;76.80;;;;;;5097858;28;20111;-88
2021/08/18 03:52:06;;;;;;;2.03;1.00;;;15.90;77.20;;;;;;5115605;28;20035;-88
2021/08/18 03:54:33;;;;;;;1.95;1.08;;;15.90;77.40;;;;;;5116025;28;20023;-87
2021/08/18 03:56:59;;;;;;;3.38;1.23;;;15.90;77.20;;;;;;5097363;28;20102;-87
2021/08/18 03:59:24;;;;;;;2.33;1.10;;;15.90;77.30;;;;;;5097350;28;20135;-87
2021/08/18 04:01:50;;;;;;;2.55;1.20;;;16.00;77.30;;;;;;5097369;28;20028;-87
2021/08/18 04:04:16;;;;;;;1.70;1.30;;;16.00;77.40;;;;;;5096664;28;20032;-89
2021/08/18 04:06:42;;;;;;;3.60;1.20;;;16.00;77.30;;;;;;5096181;28;20442;-88
2021/08/18 04:09:07;;;;;;;4.03;1.20;;;16.00;77.90;;;;;;5096372;28;20043;-87
2021/08/18 04:11:33;;;;;;;1.70;1.10;;;15.90;77.10;;;;;;5097312;28;20515;-88
2021/08/18 04:13:58;;;;;;;2.95;1.20;;;15.90;77.30;;;;;;5097191;28;20392;-89
2021/08/18 04:16:24;;;;;;;4.35;1.20;;;16.00;77.60;;;;;;5096041;28;20036;-88
2021/08/18 04:18:50;;;;;;;2.38;1.10;;;15.90;77.20;;;;;;5096422;28;20050;-87
2021/08/18 04:21:15;;;;;;;1.95;1.10;;;15.90;77.50;;;;;;5096416;28;20035;-88
2021/08/18 04:23:41;;;;;;;3.65;1.10;;;15.90;77.30;;;;;;5096585;28;20027;-87
2021/08/18 04:26:07;;;;;;;3.28;1.00;;;15.90;77.50;;;;;;5097244;28;20027;-88
2021/08/18 04:28:32;;;;;;;2.70;1.10;;;15.90;77.50;;;;;;5097220;28;20077;-87
2021/08/18 04:30:58;;;;;;;3.13;1.15;;;16.00;77.50;;;;;;5095983;28;20398;-87
2021/08/18 04:33:24;;;;;;;3.17;1.13;;;16.00;77.40;;;;;;5096306;28;20023;-87
2021/08/18 04:35:49;;;;;;;2.95;1.05;;;16.00;77.30;;;;;;5115039;28;20584;-87
2021/08/18 04:38:15;;;;;;;3.50;1.50;;;15.90;77.30;;;;;;5096689;28;20031;-87
2021/08/18 04:40:40;;;;;;;2.63;1.20;;;15.90;77.60;;;;;;5097052;28;20104;-87
2021/08/18 04:43:06;;;;;;;1.77;1.20;;;15.90;77.70;;;;;;5096430;28;20105;-87
2021/08/18 04:45:32;;;;;;;2.15;1.20;;;15.90;77.90;;;;;;5114443;28;20035;-88
2021/08/18 04:47:57;;;;;;;2.25;1.13;;;15.80;78.70;;;;;;5114886;28;20395;-87
2021/08/18 04:50:25;;;;;;;3.03;1.33;;;15.80;77.90;;;;;;5096644;28;20481;-88
2021/08/18 04:52:51;;;;;;;4.07;1.30;;;15.80;78.00;;;;;;5096961;28;20035;-87
2021/08/18 04:55:17;;;;;;;2.17;1.20;;;15.80;78.30;;;;;;5095121;28;20023;-87
2021/08/18 04:57:43;;;;;;;3.17;1.20;;;15.80;78.10;;;;;;5095802;28;20080;-87
2021/08/18 05:00:09;;;;;;;3.63;1.45;;;15.80;78.20;;;;;;5095638;28;20027;-88
2021/08/18 05:02:35;;;;;;;3.53;1.50;;;15.80;78.50;;;;;;5097190;28;20051;-87
2021/08/18 05:05:02;;;;;;;3.15;1.33;;;15.80;78.60;;;;;;5096840;28;20020;-87
2021/08/18 05:07:28;;;;;;;2.60;1.20;;;15.80;78.30;;;;;;5110388;28;20024;-88
2021/08/18 05:09:54;;;;;;;3.58;1.42;;;15.80;78.50;;;;;;5095665;28;20023;-87
2021/08/18 05:12:20;;;;;;;4.13;1.40;;;15.90;78.40;;;;;;5095650;28;20034;-88
2021/08/18 05:14:45;;;;;;;3.08;1.27;;;15.90;78.60;;;;;;5095648;28;20027;-87
2021/08/18 05:17:11;;;;;;;2.10;1.30;;;15.90;78.50;;;;;;5095908;28;20509;-87
2021/08/18 05:19:37;;;;;;;2.55;1.42;;;15.90;78.60;;;;;;5096300;28;20495;-87
2021/08/18 05:22:03;;;;;;;3.33;1.23;;;15.90;78.20;;;;;;5095351;28;20055;-87
2021/08/18 05:24:29;;;;;;;2.33;1.52;;;15.90;78.50;;;;;;5095578;28;20020;-88
2021/08/18 05:26:54;;;;;;;2.78;1.35;;;15.90;78.30;;;;;;5095375;28;20510;-87
2021/08/18 05:29:20;;;;;;;2.85;1.35;;;15.90;78.40;;;;;;5113575;28;20031;-88
2021/08/18 05:31:46;;;;;;;3.25;1.30;;;15.90;79.20;;;;;;5095949;28;20042;-87
2021/08/18 05:34:12;;;;;;;3.80;1.45;;;15.90;78.30;;;;;;5095434;28;20027;-87
2021/08/18 05:36:38;;;;;;;4.13;1.60;;;15.80;78.10;;;;;;5095627;28;20040;-87
2021/08/18 05:39:04;;;;;;;4.55;1.48;;;15.90;78.70;;;;;;5095356;28;20015;-87
2021/08/18 05:41:30;;;;;;;3.72;1.40;;;15.90;78.50;;;;;;5097430;28;20039;-87
2021/08/18 05:43:55;;;;;;;3.88;1.42;;;16.00;78.30;;;;;;5095641;28;20084;-87
2021/08/18 05:46:21;;;;;;;3.78;1.30;;;16.00;78.40;;;;;;5094764;28;20387;-87
2021/08/18 05:48:46;;;;;;;4.70;1.67;;;16.00;78.10;;;;;;5094753;28;20024;-87
2021/08/18 05:51:12;;;;;;;4.32;1.52;;;15.90;77.90;;;;;;5094891;28;20164;-87
2021/08/18 05:53:38;;;;;;;1.83;1.25;;;16.00;79.20;;;;;;5095272;28;20088;-87
2021/08/18 05:56:06;;;;;;;3.45;1.15;;;16.00;78.30;;;;;;5095571;28;20560;-88
2021/08/18 05:58:32;;;;;;;4.82;1.20;;;16.10;78.20;;;;;;5113409;28;20039;-87
2021/08/18 06:00:58;;;;;;;2.75;1.25;;;16.10;78.10;;;;;;5094822;28;20039;-87
2021/08/18 06:03:23;;;;;;;3.28;1.52;;;16.10;77.60;;;;;;5094413;28;20027;-87
2021/08/18 06:05:49;;;;;;;2.88;1.40;;;16.00;77.60;;;;;;5094577;28;20034;-88
2021/08/18 06:08:15;;;;;;;3.85;1.20;;;16.10;78.10;;;;;;5094602;28;20019;-87
2021/08/18 06:10:40;;;;;;;4.13;1.92;;;16.00;78.00;;;;;;5113494;28;20077;-88
2021/08/18 06:13:06;;;;;;;3.45;1.38;;;16.10;78.30;;;;;;5094441;28;20077;-87
2021/08/18 06:15:32;;;;;;;3.50;1.63;;;16.10;78.30;;;;;;5094682;28;20096;-87
2021/08/18 06:17:58;;;;;;;3.17;1.33;;;16.10;78.30;;;;;;5092811;28;20039;-87
2021/08/18 06:20:24;;;;;;;4.38;1.60;;;16.10;77.90;;;;;;5094604;28;20507;-87
2021/08/18 06:22:50;;;;;;;2.72;1.35;;;16.20;78.00;;;;;;5095076;28;20434;-88
2021/08/18 06:25:17;;;;;;;2.97;1.40;;;16.10;77.70;;;;;;5112754;28;20088;-87
2021/08/18 06:27:42;;;;;;;3.08;1.40;;;16.10;77.60;;;;;;5093727;28;20024;-88
2021/08/18 06:30:10;;;;;;;2.03;1.23;;;16.10;77.90;;;;;;5093974;28;20031;-87
2021/08/18 06:32:36;;;;;;;1.75;1.13;;;16.10;77.80;;;;;;5094660;28;20023;-87
2021/08/18 06:35:04;;;;;;;2.60;1.30;;;16.10;78.00;;;;;;5113124;28;20016;-88
2021/08/18 06:37:29;;;;;;;2.35;1.27;;;16.10;77.90;;;;;;5094677;28;20036;-87
2021/08/18 06:39:55;;;;;;;5.15;1.20;;;16.20;78.10;;;;;;5093665;28;20046;-88
2021/08/18 06:42:21;;;;;;;3.15;1.20;;;16.30;77.90;;;;;;5094225;28;20059;-87
2021/08/18 06:44:50;;;;;;;2.33;1.40;;;16.20;77.90;;;;;;5093971;28;20384;-88
2021/08/18 06:47:16;;;;;;;3.15;1.30;;;16.30;77.80;;;;;;5094461;28;20023;-88
2021/08/18 06:49:42;;;;;;;3.67;1.20;;;16.30;77.90;;;;;;5112848;28;20070;-87
2021/08/18 06:52:08;;;;;;;2.95;1.45;;;16.30;77.40;;;;;;5093924;28;20035;-87
2021/08/18 06:54:33;;;;;;;2.88;1.20;;;16.30;77.30;;;;;;5093368;28;20462;-88
2021/08/18 06:56:59;;;;;;;5.55;1.30;;;16.40;77.60;;;;;;5093949;28;20518;-87
2021/08/18 06:59:25;;;;;;;3.35;1.30;;;16.40;77.50;;;;;;5094241;28;20034;-88
2021/08/18 07:01:50;;;;;;;2.00;1.05;;;16.40;77.60;;;;;;5094523;28;20496;-87
2021/08/18 07:04:16;;;;;;;2.35;1.20;;;16.50;77.50;;;;;;5093678;28;20072;-87
2021/08/18 07:06:42;;;;;;;3.92;1.38;;;16.50;77.10;;;;;;5093762;28;20031;-88
2021/08/18 07:09:07;;;;;;;5.65;1.60;;;16.50;77.10;;;;;;5111786;28;20068;-87
2021/08/18 07:11:33;;;;;;;5.63;1.08;;;16.50;76.90;;;;;;5112563;28;20027;-87
2021/08/18 07:14:03;;;;;;;3.45;1.40;;;16.50;77.00;;;;;;5093845;28;20070;-87
2021/08/18 07:16:31;;;;;;;2.28;1.13;;;16.50;76.80;;;;;;5093526;28;20035;-88
2021/08/18 07:18:57;;;;;;;2.45;1.23;;;16.50;76.30;;;;;;5091720;28;20036;-88
2021/08/18 07:21:23;;;;;;;2.75;1.25;;;16.40;76.40;;;;;;5095531;28;20031;-88
2021/08/18 07:23:50;;;;;;;3.22;1.30;;;16.50;76.40;;;;;;5097162;28;20030;-88
2021/08/18 07:26:16;;;;;;;4.03;1.40;;;16.50;76.40;;;;;;5097948;28;20398;-88
2021/08/18 07:28:42;;;;;;;5.78;1.30;;;16.50;76.10;;;;;;5097767;28;20024;-86
2021/08/18 07:31:08;;;;;;;3.80;1.50;;;16.50;76.00;;;;;;5097342;28;20106;-87
2021/08/18 07:33:34;;;;;;;5.00;1.38;;;16.50;75.80;;;;;;5097035;28;20032;-89
2021/08/18 07:36:00;;;;;;;5.15;1.30;;;16.50;75.60;;;;;;5097474;28;20189;-88
2021/08/18 07:38:25;;;;;;;3.33;1.30;;;16.50;75.90;;;;;;5097603;28;20038;-88
2021/08/18 07:40:51;;;;;;;1.40;1.00;;;16.60;76.20;;;;;;5097280;28;20027;-88
2021/08/18 07:43:17;;;;;;;3.00;1.00;;;16.60;75.60;;;;;;5098126;28;20039;-89
2021/08/18 07:45:43;;;;;;;3.35;1.30;;;16.60;75.80;;;;;;5098323;28;20031;-88
2021/08/18 07:48:08;;;;;;;3.95;1.38;;;16.70;76.10;;;;;;5104171;28;20055;-88
2021/08/18 07:50:34;;;;;;;2.47;1.30;;;16.80;75.80;;;;;;5097578;27;20027;-88
2021/08/18 07:53:00;;;;;;;2.72;1.50;;;16.80;75.40;;;;;;5112555;27;20023;-89
2021/08/18 07:55:25;;;;;;;3.70;1.33;;;16.80;75.40;;;;;;5127823;27;20028;-89
2021/08/18 07:57:51;;;;;;;2.75;1.20;;;16.90;75.20;;;;;;5097838;28;20035;-88
2021/08/18 08:00:17;;;;;;;5.38;1.52;;;17.00;75.60;;;;;;5095730;28;20500;-89
2021/08/18 08:02:44;;;;;;;3.58;1.33;;;17.00;74.80;;;;;;5097209;28;20388;-89
2021/08/18 08:05:10;;;;;;;4.55;1.52;;;17.00;74.80;;;;;;5097581;28;20122;-89
2021/08/18 08:07:36;;;;;;;3.65;1.35;;;17.00;74.90;;;;;;5098010;28;20072;-89
2021/08/18 08:10:06;;;;;;;3.15;1.48;;;17.00;74.60;;;;;;5097129;28;20393;-88
2021/08/18 08:12:32;;;;;;;3.70;1.48;;;17.10;75.20;;;;;;5085923;28;20024;-88
2021/08/18 08:14:58;;;;;;;3.22;1.40;;;17.20;75.10;;;;;;5084145;28;20479;-88
2021/08/18 08:17:24;;;;;;;3.47;1.80;;;17.20;74.40;;;;;;5115192;28;20040;-87
2021/08/18 08:19:50;;;;;;;3.60;1.73;;;17.20;74.20;;;;;;5097847;28;20031;-88
2021/08/18 08:22:16;;;;;;;5.20;1.98;;;17.30;74.50;;;;;;5115774;28;20096;-88
2021/08/18 08:24:41;;;;;;;5.18;2.70;;;17.30;74.00;;;;;;5097559;28;20038;-88
2021/08/18 08:27:07;;;;;;;4.13;2.75;;;17.40;74.30;;;;;;5097696;28;20051;-88
2021/08/18 08:29:33;;;;;;;5.40;2.85;;;17.40;74.10;;;;;;5097179;28;20030;-88
2021/08/18 08:31:58;;;;;;;5.45;2.22;;;17.50;73.70;;;;;;5097530;28;20028;-89
2021/08/18 08:34:24;;;;;;;3.42;1.60;;;17.60;73.40;;;;;;5097305;28;20049;-88
2021/08/18 08:36:50;;;;;;;6.53;1.92;;;17.50;73.30;;;;;;5096377;28;20515;-87
2021/08/18 08:39:15;;;;;;;5.63;1.80;;;17.60;74.00;;;;;;5097214;28;20019;-88
2021/08/18 08:41:43;;;;;;;4.07;2.00;;;17.80;73.90;;;;;;5096897;28;20491;-88
2021/08/18 08:44:20;;;;;;;3.72;1.70;;;17.80;72.80;;;;;;5097120;28;20487;-88
2021/08/18 08:46:47;;;;;;;7.00;3.97;;;17.70;72.40;;;;;;5112406;28;20023;-89
2021/08/18 08:49:15;;;;;;;4.18;2.10;;;17.70;73.90;;;;;;5097041;28;20027;-88
2021/08/18 08:51:42;;;;;;;5.97;3.08;;;17.70;73.20;;;;;;5083893;28;20032;-88
2021/08/18 08:54:08;;;;;;;12.35;6.28;;;17.90;73.10;;;;;;5089841;28;20023;-88
2021/08/18 08:56:33;;;;;;;4.20;2.90;;;17.90;73.10;;;;;;5096722;28;20023;-87
2021/08/18 08:58:59;;;;;;;4.68;2.55;;;18.00;72.70;;;;;;5097099;28;20019;-88
2021/08/18 09:01:24;;;;;;;4.30;1.80;;;18.10;72.30;;;;;;5096420;28;20043;-89
2021/08/18 09:03:50;;;;;;;3.75;1.90;;;18.10;72.00;;;;;;5096977;28;20024;-88
2021/08/18 09:06:21;;;;;;;5.13;2.00;;;18.10;72.00;;;;;;5096386;28;20031;-88
2021/08/18 09:08:53;;;;;;;9.50;4.35;;;18.20;71.90;;;;;;5096943;28;20070;-88
2021/08/18 09:11:21;;;;;;;11.70;6.10;;;18.20;72.80;;;;;;5096307;28;20037;-88
2021/08/18 09:13:52;;;;;;;6.15;3.70;;;18.20;71.90;;;;;;5096305;28;20073;-88
2021/08/18 09:16:21;;;;;;;5.15;2.22;;;18.30;72.10;;;;;;5096017;28;20041;-88
2021/08/18 09:18:52;;;;;;;4.80;2.17;;;18.30;71.50;;;;;;5096441;28;20071;-89
2021/08/18 09:21:34;;;;;;;4.03;2.30;;;18.30;71.40;;;;;;5095981;28;20114;-88
2021/08/18 09:24:11;;;;;;;3.95;2.58;;;18.30;71.60;;;;;;5096327;28;20027;-88
2021/08/18 09:26:59;;;;;;;2.67;1.80;;;18.30;71.50;;;;;;5096400;28;20024;-88
2021/08/18 09:29:44;;;;;;;2.88;1.60;;;18.20;70.90;;;;;;5096004;28;20034;-88
2021/08/18 09:32:27;;;;;;;3.50;1.38;;;18.30;71.60;;;;;;5109910;28;20500;-89
2021/08/18 09:35:14;;;;;;;3.30;1.35;;;18.40;71.70;;;;;;5094940;28;20023;-88
2021/08/18 09:37:45;;;;;;;3.22;1.73;;;18.50;71.60;;;;;;5076050;28;20101;-88
2021/08/18 09:40:19;;;;;;;4.43;1.58;;;18.50;70.80;;;;;;5093315;28;20040;-88
2021/08/18 09:42:46;;;;;;;6.00;2.30;;;18.50;71.00;;;;;;5094814;28;20023;-88
2021/08/18 09:45:21;;;;;;;4.28;1.98;;;18.60;70.50;;;;;;5095866;28;20110;-88
2021/08/18 09:47:59;;;;;;;2.63;1.48;;;18.60;70.80;;;;;;5095735;28;20110;-88
2021/08/18 09:50:28;;;;;;;4.00;1.60;;;18.60;70.10;;;;;;5095092;28;20161;-89
2021/08/18 09:53:03;;;;;;;3.13;1.58;;;18.70;71.20;;;;;;5096196;28;20024;-88
2021/08/18 09:55:29;;;;;;;3.08;1.50;;;18.70;70.90;;;;;;5096033;28;20387;-88
2021/08/18 09:57:54;;;;;;;3.25;1.55;;;18.70;69.70;;;;;;5095584;28;20028;-88
2021/08/18 10:00:20;;;;;;;2.85;1.27;;;18.60;69.30;;;;;;5095603;28;20096;-89
2021/08/18 10:02:46;;;;;;;3.20;1.60;;;18.60;69.80;;;;;;5096015;28;20034;-89
2021/08/18 10:05:12;;;;;;;4.03;1.42;;;18.60;70.10;;;;;;5095531;28;20030;-88
2021/08/18 10:07:38;;;;;;;3.95;1.75;;;18.60;70.00;;;;;;5095693;28;20044;-88
2021/08/18 10:10:04;;;;;;;3.45;1.48;;;18.70;70.20;;;;;;5095465;28;20027;-89
2021/08/18 10:12:31;;;;;;;6.13;2.40;;;18.90;69.70;;;;;;5094434;28;20039;-88
2021/08/18 10:15:00;;;;;;;3.58;1.35;;;18.80;69.30;;;;;;5095322;28;20118;-89
2021/08/18 10:17:25;;;;;;;3.83;1.92;;;18.80;69.30;;;;;;5095741;28;20076;-88
2021/08/18 10:19:52;;;;;;;2.35;1.40;;;18.80;69.60;;;;;;5112509;28;20019;-89
2021/08/18 10:22:26;;;;;;;3.90;1.45;;;18.90;69.60;;;;;;5096407;28;20035;-89
2021/08/18 10:24:52;;;;;;;3.05;1.58;;;19.00;70.30;;;;;;5113196;28;20019;-88
2021/08/18 10:27:47;;;;;;;2.72;1.70;;;19.10;68.50;;;;;;5095385;28;20114;-88
2021/08/18 10:30:24;;;;;;;21.77;16.40;;;18.90;68.60;;;;;;5095431;28;20023;-88
2021/08/18 10:32:53;;;;;;;5.85;3.50;;;19.00;69.50;;;;;;5095061;28;20035;-89
2021/08/18 10:35:48;;;;;;;3.88;2.38;;;19.00;68.70;;;;;;5078702;28;20032;-89
2021/08/18 10:38:26;;;;;;;4.30;2.13;;;19.00;68.70;;;;;;5063205;28;20095;-89
2021/08/18 10:40:53;;;;;;;4.18;2.05;;;19.10;69.20;;;;;;5094055;28;20069;-89
2021/08/18 10:43:58;;;;;;;2.55;1.55;;;19.10;68.10;;;;;;5094868;28;20027;-88
2021/08/18 10:46:24;;;;;;;4.18;1.90;;;19.10;68.60;;;;;;5093890;28;20030;-89
2021/08/18 10:48:53;;;;;;;3.08;1.58;;;19.20;68.10;;;;;;5094633;28;20023;-88
2021/08/18 10:51:37;;;;;;;3.85;1.75;;;19.20;67.50;;;;;;5127806;27;20472;-88
2021/08/18 10:54:28;;;;;;;3.03;1.70;;;19.10;68.30;;;;;;5094848;28;20480;-89
2021/08/18 10:56:58;;;;;;;3.75;1.50;;;19.10;68.90;;;;;;5115005;27;20016;-89
2021/08/18 10:59:36;;;;;;;3.25;1.77;;;19.20;67.50;;;;;;5094549;28;20031;-88
2021/08/18 11:02:08;;;;;;;4.47;1.90;;;19.20;68.60;;;;;;5094280;28;20426;-90
2021/08/18 11:04:47;;;;;;;4.10;1.90;;;19.40;67.90;;;;;;5128196;27;20032;-89
2021/08/18 11:07:15;;;;;;;5.07;2.08;;;19.20;66.90;;;;;;5094557;28;20035;-88
2021/08/18 11:09:49;;;;;;;4.18;2.15;;;19.10;67.60;;;;;;5094647;28;20031;-88
2021/08/18 11:12:40;;;;;;;3.15;1.95;;;19.20;68.30;;;;;;5094808;28;20034;-89
2021/08/18 11:15:18;;;;;;;2.13;1.40;;;19.30;68.20;;;;;;5093321;28;20091;-89
2021/08/18 11:17:48;;;;;;;4.25;1.80;;;19.30;67.60;;;;;;5113330;28;20040;-88
2021/08/18 11:20:21;;;;;;;3.35;1.80;;;19.30;67.30;;;;;;5093996;28;20476;-89
2021/08/18 11:23:00;;;;;;;5.95;2.10;;;19.30;67.50;;;;;;5094377;28;20028;-89
2021/08/18 11:25:26;;;;;;;4.25;1.85;;;19.20;67.80;;;;;;5094140;28;20511;-89
2021/08/18 11:27:54;;;;;;;3.63;2.00;;;19.40;67.50;;;;;;5094415;28;20031;-88
2021/08/18 11:30:28;;;;;;;3.85;1.83;;;19.50;67.60;;;;;;5094084;28;20361;-89
2021/08/18 11:32:55;;;;;;;3.17;2.08;;;19.50;67.30;;;;;;5094499;28;20399;-89
2021/08/18 11:35:34;;;;;;;3.65;1.90;;;19.50;67.30;;;;;;5094862;28;20027;-89
2021/08/18 11:38:08;;;;;;;3.47;1.90;;;19.60;68.00;;;;;;5108936;28;20024;-90
2021/08/18 11:40:34;;;;;;;3.67;2.00;;;19.70;67.50;;;;;;5110856;28;20065;-89
2021/08/18 11:43:01;;;;;;;3.38;2.00;;;19.80;66.90;;;;;;5092234;28;20085;-88
2021/08/18 11:45:27;;;;;;;4.00;1.73;;;19.70;66.80;;;;;;5094086;28;20036;-89
2021/08/18 11:48:06;;;;;;;2.63;1.90;;;19.80;66.50;;;;;;5093934;28;20097;-89
2021/08/18 11:50:32;;;;;;;3.65;1.75;;;19.70;66.50;;;;;;5112022;28;20472;-88
2021/08/18 11:53:03;;;;;;;2.55;1.80;;;19.70;66.40;;;;;;5094343;28;20035;-87
2021/08/18 11:55:29;;;;;;;2.65;2.00;;;19.80;66.40;;;;;;5093787;28;20020;-88
2021/08/18 11:58:04;;;;;;;2.35;1.80;;;19.70;65.80;;;;;;5093945;28;20507;-89
2021/08/18 12:00:31;;;;;;;2.92;1.70;;;19.70;66.30;;;;;;5088127;28;20040;-91
2021/08/18 12:02:59;;;;;;;4.78;1.80;;;19.70;66.10;;;;;;5091963;28;20023;-90
2021/08/18 12:05:43;;;;;;;6.65;2.50;;;19.70;66.00;;;;;;5095924;28;20495;-89
2021/08/18 12:08:16;;;;;;;3.28;2.03;;;19.70;66.30;;;;;;5095331;28;20058;-90
2021/08/18 12:10:44;;;;;;;4.75;1.98;;;19.60;65.80;;;;;;5098360;28;20066;-89
2021/08/18 12:13:12;;;;;;;3.70;2.10;;;19.60;66.10;;;;;;5096893;28;20490;-88
2021/08/18 12:15:46;;;;;;;4.43;2.10;;;19.70;66.30;;;;;;5097340;28;20061;-91
2021/08/18 12:18:34;;;;;;;2.78;2.08;;;19.80;66.20;;;;;;5097688;28;20039;-90
2021/08/18 12:21:25;;;;;;;6.07;2.17;;;19.90;66.60;;;;;;5098612;28;20082;-90
2021/08/18 12:23:53;;;;;;;4.18;1.80;;;20.10;66.90;;;;;;5098307;28;20364;-90
2021/08/18 12:26:26;;;;;;;4.05;2.40;;;20.20;65.50;;;;;;5116441;28;20029;-90
2021/08/18 12:28:57;;;;;;;4.53;1.92;;;20.30;65.90;;;;;;5132441;27;20499;-90
2021/08/18 12:31:23;;;;;;;2.88;2.10;;;20.40;65.50;;;;;;5098300;28;20035;-90
2021/08/18 12:34:09;;;;;;;3.25;2.13;;;20.50;65.40;;;;;;5098494;28;20047;-90
2021/08/18 12:36:36;;;;;;;4.95;2.00;;;20.60;66.00;;;;;;5097632;28;20027;-89
2021/08/18 12:39:03;;;;;;;6.93;4.57;;;20.70;64.30;;;;;;5097747;28;20028;-91
2021/08/18 12:41:31;;;;;;;3.42;2.22;;;20.70;63.10;;;;;;5097414;28;20100;-90
2021/08/18 12:44:14;;;;;;;5.18;2.65;;;20.60;63.00;;;;;;5097677;28;20047;-91
2021/08/18 12:46:43;;;;;;;4.80;2.35;;;20.60;64.40;;;;;;5077664;28;20056;-90
2021/08/18 12:49:30;;;;;;;5.05;2.97;;;20.80;64.10;;;;;;5094812;28;20032;-90
2021/08/18 12:51:57;;;;;;;8.43;5.28;;;20.90;64.60;;;;;;5099260;28;20015;-91